Time;durP1;ratioP1;P1;durP2;ratioP2;P2;SDS_P1;SDS_P2;PMS_P1;PMS_P2;Temp;Humidity;BMP_temperature;BMP_pressure;BME280_temperature;BME280_humidity;BME280_pressure;Samples;Min_cycle;Max_cycle;Signal;HPM_P1;HPM_P2
2022/01/30 00:00:33;;;;;;;5.88;3.58;;;3.90;99.90;;;;;;5001858;28;20038;-73
2022/01/30 00:02:59;;;;;;;6.47;3.42;;;4.00;99.90;;;;;;5004023;28;20037;-73
2022/01/30 00:05:25;;;;;;;6.75;3.33;;;4.20;99.90;;;;;;5004008;28;20030;-73
2022/01/30 00:07:51;;;;;;;5.90;3.92;;;4.30;99.90;;;;;;5003884;28;20034;-73
2022/01/30 00:10:17;;;;;;;7.53;3.72;;;4.40;99.90;;;;;;5003864;28;20432;-73
2022/01/30 00:12:51;;;;;;;4.80;3.08;;;4.50;99.90;;;;;;5003761;28;20034;-73
2022/01/30 00:15:18;;;;;;;5.88;3.15;;;4.60;99.90;;;;;;5003360;28;20514;-73
2022/01/30 00:17:51;;;;;;;6.75;3.47;;;4.70;99.90;;;;;;5003578;28;20041;-74
2022/01/30 00:20:23;;;;;;;5.00;3.10;;;4.60;99.90;;;;;;5000843;28;20034;-74
2022/01/30 00:23:06;;;;;;;6.88;3.65;;;4.60;99.90;;;;;;5004831;28;20034;-74
2022/01/30 00:25:44;;;;;;;5.78;3.20;;;4.70;99.90;;;;;;5001927;28;20087;-73
2022/01/30 00:28:12;;;;;;;5.35;2.92;;;4.80;99.90;;;;;;5004565;28;20056;-73
2022/01/30 00:30:38;;;;;;;6.05;3.47;;;4.90;99.90;;;;;;5002558;28;20029;-72
2022/01/30 00:33:04;;;;;;;6.35;3.13;;;4.90;99.90;;;;;;5006098;28;20033;-73
2022/01/30 00:35:33;;;;;;;5.10;3.25;;;5.00;99.90;;;;;;5002486;28;20074;-73
2022/01/30 00:38:00;;;;;;;5.82;3.35;;;4.80;99.90;;;;;;5005021;28;20068;-73
2022/01/30 00:40:26;;;;;;;6.45;3.13;;;4.70;99.90;;;;;;5001416;28;20038;-73
2022/01/30 00:42:51;;;;;;;5.55;3.38;;;4.70;99.90;;;;;;5002999;28;20030;-73
2022/01/30 00:45:17;;;;;;;5.68;3.47;;;4.60;99.90;;;;;;5001788;28;20745;-73
2022/01/30 00:47:43;;;;;;;5.22;2.92;;;4.60;99.90;;;;;;5004325;28;20040;-73
2022/01/30 00:50:10;;;;;;;5.90;3.55;;;4.60;99.90;;;;;;5004839;28;20680;-73
2022/01/30 00:52:35;;;;;;;4.72;2.85;;;4.60;99.90;;;;;;5003637;28;20026;-73
2022/01/30 00:55:01;;;;;;;3.45;2.03;;;4.70;99.90;;;;;;5003826;28;20033;-73
2022/01/30 00:57:27;;;;;;;3.42;2.10;;;4.60;99.90;;;;;;5000704;28;20040;-75
2022/01/30 00:59:52;;;;;;;3.38;1.98;;;4.70;99.90;;;;;;5000863;28;20057;-74
2022/01/30 01:02:18;;;;;;;2.35;1.70;;;5.00;99.90;;;;;;5004059;28;20041;-73
2022/01/30 01:04:45;;;;;;;2.30;1.40;;;5.20;99.90;;;;;;5002037;28;20041;-73
2022/01/30 01:07:19;;;;;;;2.55;1.52;;;5.50;99.90;;;;;;5005228;28;20018;-72
2022/01/30 01:09:55;;;;;;;2.05;1.38;;;5.60;99.90;;;;;;5002655;28;20391;-71
2022/01/30 01:23:28;;;;;;;4.78;2.22;;;6.00;99.20;;;;;;5003793;28;20100;-73
2022/01/30 01:25:56;;;;;;;2.53;1.63;;;6.00;99.10;;;;;;5001726;28;20140;-72
2022/01/30 01:28:21;;;;;;;2.53;1.30;;;6.00;99.10;;;;;;5001204;28;20125;-71
2022/01/30 01:30:47;;;;;;;2.83;1.95;;;6.10;98.70;;;;;;5003071;28;20164;-72
2022/01/30 01:33:14;;;;;;;4.57;1.88;;;6.10;98.70;;;;;;5002555;28;20037;-71
2022/01/30 01:35:40;;;;;;;2.70;1.85;;;6.10;98.70;;;;;;4997519;28;20018;-71
2022/01/30 01:38:10;;;;;;;2.78;1.85;;;6.00;98.80;;;;;;5003201;28;20599;-71
2022/01/30 01:40:37;;;;;;;3.05;1.65;;;6.00;98.60;;;;;;5002973;28;20785;-71
2022/01/30 01:43:02;;;;;;;3.15;2.10;;;5.90;98.60;;;;;;5001888;28;20396;-72
2022/01/30 01:45:34;;;;;;;2.50;1.80;;;5.90;98.50;;;;;;5001708;28;20030;-71
2022/01/30 01:48:03;;;;;;;3.83;1.98;;;5.90;98.50;;;;;;5002956;28;20034;-70
2022/01/30 01:50:43;;;;;;;3.20;2.15;;;5.90;98.60;;;;;;5000445;28;20038;-70
2022/01/30 01:53:14;;;;;;;3.03;1.90;;;5.80;98.60;;;;;;5002204;28;20037;-71
2022/01/30 01:55:42;;;;;;;3.75;2.45;;;5.80;98.90;;;;;;5001997;28;20030;-71
2022/01/30 01:58:08;;;;;;;4.95;2.53;;;5.80;98.90;;;;;;5000977;28;20033;-71
2022/01/30 02:00:36;;;;;;;4.88;2.33;;;5.80;99.00;;;;;;5001558;28;20806;-72
2022/01/30 02:03:03;;;;;;;3.38;2.40;;;5.70;99.40;;;;;;5002794;28;20045;-71
2022/01/30 02:05:32;;;;;;;3.05;1.88;;;5.70;99.20;;;;;;5001565;28;20033;-72
2022/01/30 02:13:45;;;;;;;6.03;2.38;;;5.80;99.30;;;;;;4991313;28;20045;-71
2022/01/30 02:24:34;;;;;;;3.53;1.60;;;5.90;99.20;;;;;;5005941;28;20045;-70
2022/01/30 02:27:00;;;;;;;3.15;1.52;;;5.90;99.30;;;;;;5003580;28;20549;-71
2022/01/30 02:29:26;;;;;;;2.28;1.80;;;5.90;99.50;;;;;;5002761;28;20026;-71
2022/01/30 02:31:55;;;;;;;3.58;2.00;;;5.90;99.50;;;;;;5003163;28;20472;-72
2022/01/30 02:34:29;;;;;;;2.10;1.45;;;5.90;99.30;;;;;;5008724;28;20022;-71
2022/01/30 02:36:55;;;;;;;2.20;1.42;;;6.00;99.30;;;;;;5004235;28;20079;-70
2022/01/30 02:39:22;;;;;;;1.83;1.13;;;5.90;99.40;;;;;;5005875;28;23632;-71
2022/01/30 02:41:49;;;;;;;1.88;1.35;;;6.00;99.40;;;;;;5004369;28;20029;-71
2022/01/30 02:46:44;;;;;;;2.05;1.45;;;6.20;99.50;;;;;;5006049;28;20037;-71
2022/01/30 02:51:51;;;;;;;1.60;0.80;;;6.20;99.90;;;;;;5002952;28;20038;-71
2022/01/30 02:54:17;;;;;;;1.52;0.82;;;6.20;99.90;;;;;;5002279;28;20109;-72
2022/01/30 02:56:43;;;;;;;2.05;0.95;;;6.30;99.90;;;;;;5006125;28;20080;-71
2022/01/30 02:59:10;;;;;;;1.52;1.00;;;6.40;99.90;;;;;;5004954;28;20053;-71
2022/01/30 03:01:36;;;;;;;0.85;0.70;;;6.50;99.90;;;;;;5002872;28;20036;-71
2022/01/30 03:04:02;;;;;;;0.95;0.70;;;6.60;99.90;;;;;;5003800;28;20108;-70
2022/01/30 03:06:28;;;;;;;0.63;0.63;;;6.60;99.90;;;;;;5004418;28;20479;-73
2022/01/30 03:08:54;;;;;;;2.10;1.00;;;6.60;99.90;;;;;;5005764;28;20839;-71
2022/01/30 03:11:20;;;;;;;1.10;1.00;;;6.60;99.90;;;;;;5004063;28;20034;-71
2022/01/30 03:13:46;;;;;;;1.75;1.08;;;6.60;99.90;;;;;;5003350;28;20029;-70
2022/01/30 03:16:12;;;;;;;1.90;1.17;;;6.60;99.90;;;;;;5003729;28;20144;-71
2022/01/30 03:18:38;;;;;;;1.35;0.93;;;6.60;99.90;;;;;;5003432;28;20112;-71
2022/01/30 03:21:04;;;;;;;1.75;1.38;;;6.60;99.80;;;;;;5004387;28;20084;-70
2022/01/30 03:23:30;;;;;;;2.05;1.13;;;6.50;99.80;;;;;;5003745;28;20022;-72
2022/01/30 03:25:59;;;;;;;2.40;1.13;;;6.50;99.90;;;;;;5004117;28;20033;-72
2022/01/30 03:28:26;;;;;;;1.38;1.00;;;6.50;99.90;;;;;;5001772;28;20066;-72
2022/01/30 03:30:59;;;;;;;0.80;0.80;;;6.50;99.70;;;;;;5003321;28;20092;-72
2022/01/30 03:33:25;;;;;;;1.50;1.20;;;6.50;99.90;;;;;;5002923;28;20511;-72
2022/01/30 03:35:51;;;;;;;2.30;1.42;;;6.50;99.80;;;;;;5003224;28;20109;-73
2022/01/30 03:38:19;;;;;;;2.17;1.05;;;6.40;99.80;;;;;;5000939;28;20044;-73
2022/01/30 03:40:44;;;;;;;1.50;0.90;;;6.50;99.60;;;;;;5001950;28;20045;-72
2022/01/30 03:43:10;;;;;;;1.05;0.80;;;6.50;99.50;;;;;;5001417;28;20034;-72
2022/01/30 03:45:36;;;;;;;1.42;0.93;;;6.60;99.40;;;;;;5003383;28;20048;-72
2022/01/30 03:48:02;;;;;;;1.02;0.85;;;6.60;99.30;;;;;;5002710;28;20042;-72
2022/01/30 03:50:28;;;;;;;1.00;0.88;;;6.70;99.30;;;;;;5004726;28;20038;-73
2022/01/30 03:52:57;;;;;;;0.95;0.75;;;6.60;99.20;;;;;;5002298;28;20054;-72
2022/01/30 03:55:23;;;;;;;1.20;0.70;;;6.70;99.60;;;;;;5002488;28;20049;-71
2022/01/30 03:57:49;;;;;;;0.90;0.77;;;6.80;99.90;;;;;;5001130;28;20132;-71
2022/01/30 04:00:15;;;;;;;1.42;0.80;;;6.60;99.90;;;;;;5002256;28;20053;-71
2022/01/30 04:02:41;;;;;;;0.45;0.32;;;6.50;99.90;;;;;;5002101;28;20080;-72
2022/01/30 04:05:08;;;;;;;1.85;0.68;;;6.50;99.90;;;;;;5004432;28;20504;-73
2022/01/30 04:07:34;;;;;;;0.60;0.50;;;6.40;99.90;;;;;;4997854;28;20194;-72
2022/01/30 04:10:01;;;;;;;0.65;0.52;;;6.40;99.90;;;;;;5001622;28;20043;-72
2022/01/30 04:12:26;;;;;;;1.55;0.38;;;6.30;99.90;;;;;;5002523;28;20509;-72
2022/01/30 04:14:53;;;;;;;0.55;0.50;;;6.30;99.90;;;;;;5003448;28;20025;-71
2022/01/30 04:17:19;;;;;;;0.55;0.38;;;6.30;99.90;;;;;;5003043;28;20548;-71
2022/01/30 04:19:45;;;;;;;0.68;0.47;;;6.30;99.90;;;;;;5002331;28;20151;-72
2022/01/30 04:22:11;;;;;;;2.53;0.70;;;6.40;99.90;;;;;;5003100;28;20034;-71
2022/01/30 04:24:37;;;;;;;1.00;0.43;;;6.50;99.90;;;;;;5002127;28;20157;-72
2022/01/30 04:27:03;;;;;;;0.50;0.50;;;6.50;99.90;;;;;;5001945;28;20113;-71
2022/01/30 04:29:29;;;;;;;0.30;0.30;;;6.40;99.90;;;;;;5001010;28;20500;-71
2022/01/30 04:31:55;;;;;;;0.40;0.40;;;6.40;99.90;;;;;;5003225;28;20040;-72
2022/01/30 04:34:22;;;;;;;0.40;0.40;;;6.40;99.90;;;;;;5000564;28;20034;-71
2022/01/30 04:37:29;;;;;;;0.52;0.52;;;6.40;99.90;;;;;;5005741;28;20033;-71
2022/01/30 04:53:20;;;;;;;1.73;0.63;;;6.40;99.90;;;;;;5003311;28;20060;-71
2022/01/30 04:58:51;;;;;;;0.82;0.65;;;6.30;99.90;;;;;;5001241;28;20173;-70
2022/01/30 05:01:39;;;;;;;0.80;0.75;;;6.20;99.90;;;;;;5003475;28;20060;-69
2022/01/30 05:04:22;;;;;;;0.93;0.55;;;6.20;99.90;;;;;;5002238;28;20042;-71
2022/01/30 05:09:41;;;;;;;1.55;0.57;;;6.00;99.90;;;;;;4981218;28;20396;-70
2022/01/30 05:12:07;;;;;;;0.50;0.50;;;6.00;99.90;;;;;;5002399;28;20034;-71
2022/01/30 05:14:35;;;;;;;1.23;0.65;;;5.90;99.90;;;;;;5005126;28;20030;-71
2022/01/30 05:17:03;;;;;;;0.68;0.68;;;5.90;99.90;;;;;;5002360;28;20120;-71
2022/01/30 05:19:29;;;;;;;0.57;0.40;;;6.00;99.90;;;;;;5001904;28;20779;-71
2022/01/30 05:21:56;;;;;;;0.70;0.63;;;6.00;99.90;;;;;;5005393;28;20663;-70
2022/01/30 05:24:22;;;;;;;0.60;0.50;;;6.10;99.90;;;;;;5001037;28;20585;-70
2022/01/30 05:26:48;;;;;;;0.73;0.57;;;6.10;99.90;;;;;;5001421;28;20022;-72
2022/01/30 05:29:15;;;;;;;0.57;0.32;;;6.20;99.90;;;;;;5002113;28;20524;-72
2022/01/30 05:31:41;;;;;;;0.95;0.50;;;6.20;99.90;;;;;;5002738;28;20076;-70
2022/01/30 05:34:07;;;;;;;0.57;0.30;;;6.20;99.90;;;;;;5000816;28;20041;-69
2022/01/30 05:36:33;;;;;;;0.28;0.20;;;6.20;99.90;;;;;;5004189;28;20038;-74
2022/01/30 05:39:00;;;;;;;0.45;0.30;;;6.30;99.90;;;;;;5001663;28;20040;-74
2022/01/30 05:41:27;;;;;;;0.30;0.20;;;6.30;99.90;;;;;;4997008;28;20087;-73
2022/01/30 05:43:57;;;;;;;0.30;0.30;;;6.30;99.90;;;;;;5001832;28;20021;-74
2022/01/30 05:46:35;;;;;;;0.57;0.22;;;6.30;99.90;;;;;;5004364;28;20038;-71
2022/01/30 05:49:02;;;;;;;0.47;0.20;;;6.40;99.90;;;;;;5002459;28;20034;-70
2022/01/30 05:51:28;;;;;;;2.33;0.32;;;6.60;99.90;;;;;;5003333;28;20101;-69
2022/01/30 05:53:53;;;;;;;0.73;0.20;;;6.60;99.90;;;;;;5002450;28;20507;-69
2022/01/30 05:56:19;;;;;;;0.38;0.10;;;6.60;99.90;;;;;;5002091;28;20540;-69
2022/01/30 05:58:45;;;;;;;0.30;0.10;;;6.60;99.90;;;;;;5000204;28;20505;-71
2022/01/30 06:01:10;;;;;;;0.65;0.10;;;6.60;99.90;;;;;;5002448;28;20035;-70
2022/01/30 06:03:36;;;;;;;0.20;0.08;;;6.60;99.90;;;;;;5001983;28;20026;-72
2022/01/30 06:06:02;;;;;;;0.20;0.20;;;6.60;99.90;;;;;;5001062;28;20031;-70
2022/01/30 06:11:07;;;;;;;0.20;0.20;;;6.60;99.90;;;;;;5005221;28;20038;-69
2022/01/30 06:13:32;;;;;;;0.00;0.00;;;6.50;99.90;;;;;;5004412;28;20100;-70
2022/01/30 06:15:59;;;;;;;1.20;0.20;;;6.50;99.90;;;;;;5003649;28;20042;-70
2022/01/30 06:18:25;;;;;;;0.28;0.10;;;6.50;99.90;;;;;;5004370;28;20033;-70
2022/01/30 06:20:50;;;;;;;0.43;0.10;;;6.50;99.90;;;;;;5004868;28;20065;-69
2022/01/30 06:23:16;;;;;;;0.15;0.00;;;6.50;99.90;;;;;;5001737;28;20060;-70
2022/01/30 06:25:42;;;;;;;1.15;0.20;;;6.60;99.90;;;;;;4999600;28;20105;-69
2022/01/30 06:28:07;;;;;;;1.23;0.50;;;6.60;99.90;;;;;;5000222;28;20050;-69
2022/01/30 06:30:33;;;;;;;1.23;0.13;;;6.60;99.90;;;;;;4999695;28;20041;-70
2022/01/30 06:33:00;;;;;;;0.40;0.20;;;6.60;99.30;;;;;;5004987;28;20046;-72
2022/01/30 06:35:26;;;;;;;0.10;0.10;;;6.70;98.60;;;;;;5001717;28;20030;-71
2022/01/30 06:37:51;;;;;;;0.13;0.10;;;6.70;98.50;;;;;;5002297;28;20032;-72
2022/01/30 06:40:17;;;;;;;0.90;0.20;;;6.70;97.30;;;;;;5000212;28;20029;-72
2022/01/30 06:42:43;;;;;;;0.60;0.10;;;6.80;95.90;;;;;;4999996;28;20033;-71
2022/01/30 06:45:09;;;;;;;0.47;0.03;;;6.90;96.70;;;;;;4999425;28;20031;-74
2022/01/30 06:47:44;;;;;;;1.45;0.10;;;6.80;96.50;;;;;;5000149;28;20125;-73
2022/01/30 06:50:10;;;;;;;1.20;0.30;;;6.80;97.50;;;;;;5000768;28;20069;-74
2022/01/30 06:52:36;;;;;;;1.10;0.30;;;6.70;97.10;;;;;;5001562;28;20123;-73
2022/01/30 06:55:03;;;;;;;1.52;0.15;;;6.80;96.90;;;;;;5000988;28;20029;-72
2022/01/30 06:57:28;;;;;;;0.40;0.10;;;6.70;96.80;;;;;;5003896;28;20759;-71
2022/01/30 06:59:54;;;;;;;0.55;0.13;;;6.70;96.40;;;;;;5001278;28;20069;-73
2022/01/30 07:02:20;;;;;;;2.15;0.45;;;6.70;96.50;;;;;;5003391;28;20087;-73
2022/01/30 07:04:45;;;;;;;0.22;0.10;;;6.80;96.50;;;;;;5003857;28;20045;-72
2022/01/30 07:07:11;;;;;;;1.85;0.20;;;6.80;96.10;;;;;;5002334;28;20034;-73
2022/01/30 07:09:37;;;;;;;0.68;0.20;;;6.80;95.90;;;;;;5006970;28;20026;-72
2022/01/30 07:12:03;;;;;;;0.65;0.20;;;6.80;95.80;;;;;;5002689;28;20180;-73
2022/01/30 07:14:31;;;;;;;1.63;0.45;;;6.90;96.50;;;;;;5001604;28;20817;-72
2022/01/30 07:16:57;;;;;;;1.45;0.20;;;6.80;96.70;;;;;;5005266;28;20045;-71
2022/01/30 07:19:23;;;;;;;1.30;0.25;;;6.90;96.10;;;;;;5004721;28;20029;-72
2022/01/30 07:21:49;;;;;;;1.98;0.35;;;6.90;95.60;;;;;;5001529;28;20056;-73
2022/01/30 07:24:14;;;;;;;0.88;0.20;;;7.00;95.70;;;;;;5007131;28;20034;-72
2022/01/30 07:26:40;;;;;;;0.35;0.10;;;7.10;95.10;;;;;;5005378;28;20022;-72
2022/01/30 07:29:06;;;;;;;1.08;0.50;;;7.20;95.30;;;;;;5004884;28;20503;-73
2022/01/30 07:31:33;;;;;;;0.63;0.17;;;7.20;95.20;;;;;;5005596;28;20037;-71
2022/01/30 07:34:00;;;;;;;1.08;0.10;;;7.20;95.80;;;;;;5003517;28;20034;-73
2022/01/30 07:36:27;;;;;;;0.65;0.20;;;7.20;95.50;;;;;;5003780;28;20038;-73
2022/01/30 07:38:53;;;;;;;0.55;0.20;;;7.20;95.50;;;;;;5001127;28;20048;-73
2022/01/30 07:41:20;;;;;;;1.25;0.30;;;7.10;95.20;;;;;;5018512;28;20734;-73
2022/01/30 07:43:46;;;;;;;1.30;0.20;;;7.00;95.20;;;;;;5004407;28;20084;-73
2022/01/30 07:46:12;;;;;;;0.85;0.20;;;6.90;95.40;;;;;;5001985;28;20022;-73
2022/01/30 07:48:37;;;;;;;3.08;0.43;;;6.90;95.30;;;;;;5003343;28;20061;-73
2022/01/30 07:51:06;;;;;;;2.78;0.28;;;7.00;95.20;;;;;;5004160;28;20041;-73
2022/01/30 07:53:32;;;;;;;1.73;0.40;;;7.20;95.30;;;;;;5003961;28;20030;-73
2022/01/30 07:55:58;;;;;;;1.10;0.20;;;7.30;93.80;;;;;;5001992;28;20053;-74
2022/01/30 07:58:24;;;;;;;2.25;0.40;;;7.30;94.60;;;;;;5001823;28;20054;-73
2022/01/30 08:00:49;;;;;;;0.70;0.20;;;7.40;93.40;;;;;;5003658;28;20026;-73
2022/01/30 08:03:15;;;;;;;0.73;0.40;;;7.50;93.10;;;;;;5004798;28;20620;-72
2022/01/30 08:05:41;;;;;;;2.40;0.40;;;7.60;93.40;;;;;;5001110;28;20078;-73
2022/01/30 08:08:07;;;;;;;1.83;0.30;;;7.60;92.80;;;;;;5002968;28;20037;-73
2022/01/30 08:10:33;;;;;;;2.05;0.45;;;7.60;93.40;;;;;;5000437;28;20480;-73
2022/01/30 08:12:59;;;;;;;3.20;0.50;;;7.70;93.60;;;;;;5000806;28;20033;-71
2022/01/30 08:15:25;;;;;;;1.02;0.22;;;7.70;92.90;;;;;;5004729;28;20034;-70
2022/01/30 08:17:51;;;;;;;2.08;0.22;;;7.60;93.20;;;;;;5001255;28;20620;-70
2022/01/30 08:20:16;;;;;;;0.73;0.30;;;7.50;93.20;;;;;;5002274;28;20026;-71
2022/01/30 08:22:50;;;;;;;1.65;0.30;;;7.50;93.70;;;;;;4999586;28;20038;-73
2022/01/30 08:25:18;;;;;;;1.63;0.45;;;7.50;93.30;;;;;;5002912;28;20072;-73
2022/01/30 08:27:44;;;;;;;1.92;0.50;;;7.40;93.60;;;;;;5002409;28;20027;-72
2022/01/30 08:30:10;;;;;;;0.90;0.35;;;7.40;93.50;;;;;;5004706;28;20408;-71
2022/01/30 08:32:40;;;;;;;1.30;0.68;;;7.30;94.10;;;;;;5001252;28;20042;-71
2022/01/30 08:35:08;;;;;;;2.28;0.40;;;7.30;94.40;;;;;;5001778;28;20515;-71
2022/01/30 08:37:36;;;;;;;0.10;0.00;;;7.10;95.90;;;;;;5003978;28;20026;-71
2022/01/30 08:40:08;;;;;;;0.70;0.20;;;6.30;97.80;;;;;;5008138;28;20034;-72
2022/01/30 08:42:34;;;;;;;1.13;0.30;;;5.90;99.60;;;;;;5005204;28;20068;-72
2022/01/30 08:45:00;;;;;;;0.45;0.28;;;5.50;99.90;;;;;;5001741;28;20057;-72
2022/01/30 08:47:27;;;;;;;2.72;0.75;;;5.30;99.90;;;;;;5003263;28;20034;-71
2022/01/30 08:49:53;;;;;;;0.52;0.43;;;5.20;99.90;;;;;;5001547;28;20055;-71
2022/01/30 08:52:19;;;;;;;0.40;0.28;;;5.20;99.90;;;;;;5003096;28;20089;-72
2022/01/30 08:54:49;;;;;;;2.22;0.40;;;5.20;99.90;;;;;;5001094;28;20053;-71
2022/01/30 08:57:15;;;;;;;0.47;0.30;;;5.10;99.90;;;;;;5000425;28;20035;-71
2022/01/30 08:59:41;;;;;;;1.17;0.30;;;5.00;99.90;;;;;;5001535;28;20100;-71
2022/01/30 09:02:07;;;;;;;1.95;0.30;;;5.00;99.90;;;;;;5002157;28;20040;-73
2022/01/30 09:04:33;;;;;;;1.67;0.52;;;5.00;99.90;;;;;;4999900;28;20393;-70
2022/01/30 09:06:59;;;;;;;1.02;0.30;;;5.20;99.90;;;;;;5000587;28;20033;-71
2022/01/30 09:09:25;;;;;;;2.95;0.40;;;5.60;99.90;;;;;;4997918;28;20061;-70
2022/01/30 09:11:51;;;;;;;1.90;0.40;;;5.80;99.90;;;;;;5000083;28;20034;-71
2022/01/30 09:14:17;;;;;;;2.78;0.50;;;6.10;99.40;;;;;;4999488;28;20041;-71
2022/01/30 09:16:45;;;;;;;2.30;0.55;;;6.20;98.70;;;;;;5003527;28;20018;-72
2022/01/30 09:19:10;;;;;;;1.75;0.30;;;6.30;98.10;;;;;;5001117;28;20033;-70
2022/01/30 09:21:36;;;;;;;2.83;0.50;;;6.50;97.90;;;;;;4999853;28;20026;-71
2022/01/30 09:24:01;;;;;;;2.38;0.43;;;6.60;96.40;;;;;;5004351;28;20026;-69
2022/01/30 09:26:27;;;;;;;4.32;0.80;;;6.70;96.00;;;;;;4999571;28;20117;-69
2022/01/30 09:28:53;;;;;;;2.72;0.63;;;6.80;95.60;;;;;;4997879;28;20124;-69
2022/01/30 09:31:18;;;;;;;2.55;0.30;;;6.90;92.80;;;;;;5003017;28;20076;-68
2022/01/30 09:33:44;;;;;;;1.58;0.38;;;6.90;93.40;;;;;;4991175;28;20047;-68
2022/01/30 09:36:10;;;;;;;1.67;0.63;;;7.00;92.10;;;;;;4974901;28;20058;-69
2022/01/30 09:38:35;;;;;;;2.60;0.40;;;7.10;92.00;;;;;;4993148;28;20048;-71
2022/01/30 09:41:04;;;;;;;2.42;0.52;;;7.30;91.70;;;;;;4991974;28;20787;-70
2022/01/30 09:43:31;;;;;;;1.67;0.63;;;7.50;92.00;;;;;;4990074;28;20509;-70
2022/01/30 09:45:58;;;;;;;2.60;0.70;;;7.60;91.00;;;;;;4996501;28;20676;-72
2022/01/30 09:48:24;;;;;;;2.28;0.60;;;7.70;86.50;;;;;;4994352;28;20128;-69
2022/01/30 09:50:50;;;;;;;2.00;0.32;;;7.70;87.90;;;;;;4994301;28;20056;-67
2022/01/30 09:53:17;;;;;;;4.28;0.70;;;7.70;85.30;;;;;;4992788;28;20181;-67
2022/01/30 09:55:42;;;;;;;2.47;0.57;;;7.70;89.00;;;;;;4993872;28;20448;-69
2022/01/30 09:58:08;;;;;;;1.70;0.57;;;7.70;87.20;;;;;;4995507;28;20057;-68
2022/01/30 10:00:35;;;;;;;2.13;0.73;;;7.70;86.00;;;;;;4996512;28;20049;-69
2022/01/30 10:03:01;;;;;;;2.15;0.50;;;7.80;81.70;;;;;;4990744;28;20089;-69
2022/01/30 10:05:32;;;;;;;2.58;0.60;;;7.80;85.30;;;;;;4996159;28;20179;-69
2022/01/30 10:07:58;;;;;;;1.35;0.47;;;7.80;82.10;;;;;;4995848;28;20184;-69
2022/01/30 10:10:27;;;;;;;2.30;0.75;;;7.80;82.20;;;;;;4995224;28;20050;-69
2022/01/30 10:13:14;;;;;;;0.93;0.30;;;7.80;79.90;;;;;;4993842;28;20548;-69
2022/01/30 10:15:52;;;;;;;2.83;0.57;;;7.70;83.10;;;;;;4995341;28;20037;-69
2022/01/30 10:18:19;;;;;;;1.75;0.47;;;7.60;84.70;;;;;;4995731;28;20050;-69
2022/01/30 10:20:45;;;;;;;2.28;0.70;;;7.50;83.00;;;;;;4993504;28;20054;-67
2022/01/30 10:23:11;;;;;;;1.38;0.40;;;7.40;84.60;;;;;;4996536;28;20126;-69
2022/01/30 10:25:48;;;;;;;1.33;0.20;;;7.40;83.20;;;;;;4994602;28;20567;-68
2022/01/30 10:28:21;;;;;;;4.50;0.75;;;7.30;86.70;;;;;;4993231;28;20100;-68
2022/01/30 10:30:53;;;;;;;1.70;0.52;;;7.20;88.00;;;;;;4999188;28;20057;-69
2022/01/30 10:33:21;;;;;;;5.72;0.88;;;7.10;89.20;;;;;;4998105;28;20089;-69
2022/01/30 10:35:53;;;;;;;3.05;0.65;;;6.90;89.40;;;;;;4998268;28;20050;-68
2022/01/30 10:38:35;;;;;;;1.75;0.35;;;6.90;90.90;;;;;;4991069;28;20054;-68
2022/01/30 10:41:30;;;;;;;4.25;0.88;;;6.90;91.80;;;;;;4994773;28;20589;-70
2022/01/30 10:44:03;;;;;;;3.25;0.52;;;6.70;91.90;;;;;;4997486;28;20125;-72
2022/01/30 10:46:41;;;;;;;4.45;0.50;;;6.50;93.20;;;;;;4988267;28;20055;-70
2022/01/30 10:49:17;;;;;;;3.50;0.70;;;6.50;94.00;;;;;;4993684;28;20088;-71
2022/01/30 10:51:57;;;;;;;1.65;0.40;;;6.50;93.50;;;;;;4992344;28;20046;-70
2022/01/30 10:54:26;;;;;;;3.45;0.60;;;6.50;93.70;;;;;;4996623;28;20058;-70
2022/01/30 10:57:01;;;;;;;6.93;0.98;;;6.60;92.60;;;;;;4988444;28;20148;-70
2022/01/30 10:59:27;;;;;;;2.15;0.70;;;6.60;92.80;;;;;;4992852;28;20046;-71
2022/01/30 11:01:53;;;;;;;2.30;0.60;;;6.60;91.50;;;;;;4985714;28;20089;-72
2022/01/30 11:04:31;;;;;;;2.78;0.55;;;6.60;91.40;;;;;;4985224;28;20061;-70
2022/01/30 11:07:05;;;;;;;3.15;0.95;;;6.60;91.40;;;;;;4997648;28;20046;-71
2022/01/30 11:09:42;;;;;;;1.20;0.30;;;6.50;91.40;;;;;;4995313;28;20049;-72
2022/01/30 11:12:12;;;;;;;4.53;0.65;;;6.40;91.80;;;;;;4996849;28;20133;-71
2022/01/30 11:14:51;;;;;;;3.25;0.63;;;6.40;91.50;;;;;;4997637;28;20128;-70
2022/01/30 11:17:18;;;;;;;3.40;0.93;;;6.40;91.40;;;;;;4989342;28;20066;-70
2022/01/30 11:19:48;;;;;;;3.17;0.90;;;6.40;91.30;;;;;;4997420;28;20073;-70
2022/01/30 11:22:15;;;;;;;4.10;0.80;;;6.40;91.50;;;;;;4996885;28;20054;-70
2022/01/30 11:25:02;;;;;;;4.47;1.60;;;6.40;91.10;;;;;;4980927;28;20049;-71
2022/01/30 11:27:28;;;;;;;1.30;0.45;;;6.40;90.70;;;;;;4990272;28;20045;-71
2022/01/30 11:29:54;;;;;;;6.75;0.55;;;6.40;91.00;;;;;;4993141;28;20065;-72
2022/01/30 11:32:22;;;;;;;4.47;0.90;;;6.40;90.70;;;;;;4997890;28;20054;-70
2022/01/30 11:34:48;;;;;;;4.75;0.70;;;6.40;90.00;;;;;;4993740;28;20046;-71
2022/01/30 11:37:16;;;;;;;5.60;1.33;;;6.30;89.50;;;;;;4992583;28;20061;-69
2022/01/30 11:39:47;;;;;;;3.03;0.60;;;6.30;91.00;;;;;;4996153;28;20064;-71
2022/01/30 11:42:20;;;;;;;3.08;0.70;;;6.40;90.30;;;;;;4995323;28;20144;-72
2022/01/30 11:45:07;;;;;;;2.90;0.68;;;6.40;89.80;;;;;;4990817;28;20108;-70
2022/01/30 11:47:55;;;;;;;3.25;0.70;;;6.40;90.10;;;;;;4989305;28;20045;-71
2022/01/30 11:50:29;;;;;;;3.10;0.80;;;6.50;88.50;;;;;;4992503;28;20583;-71
2022/01/30 11:53:13;;;;;;;5.15;0.70;;;6.50;87.80;;;;;;4992798;28;20075;-72
2022/01/30 11:55:48;;;;;;;3.50;0.73;;;6.50;87.10;;;;;;4993737;28;20046;-71
2022/01/30 11:58:33;;;;;;;4.28;1.83;;;6.50;87.80;;;;;;4998642;28;20158;-72
2022/01/30 12:01:04;;;;;;;2.42;0.45;;;6.50;89.30;;;;;;4990497;28;20053;-71
2022/01/30 12:03:37;;;;;;;3.45;0.90;;;6.60;89.30;;;;;;4990951;28;20093;-70
2022/01/30 12:06:21;;;;;;;3.38;0.45;;;6.60;87.70;;;;;;4996038;28;20042;-71
2022/01/30 12:08:52;;;;;;;1.73;0.70;;;6.60;88.20;;;;;;4998165;28;20104;-69
2022/01/30 12:11:36;;;;;;;3.30;0.52;;;6.60;88.70;;;;;;4999983;28;20042;-71
2022/01/30 12:14:11;;;;;;;3.55;0.70;;;6.50;89.30;;;;;;4992724;28;20054;-71
2022/01/30 12:16:56;;;;;;;2.95;0.73;;;6.40;88.70;;;;;;4994710;28;20054;-70
2022/01/30 12:19:30;;;;;;;4.78;0.90;;;6.40;89.20;;;;;;5002525;28;20033;-70
2022/01/30 12:21:57;;;;;;;2.55;0.80;;;6.40;90.30;;;;;;5002390;28;20104;-71
2022/01/30 12:24:28;;;;;;;4.43;0.40;;;6.40;89.50;;;;;;5003035;28;20041;-69
2022/01/30 12:26:56;;;;;;;1.93;0.67;;;6.40;88.30;;;;;;5000555;28;20450;-70
2022/01/30 12:29:41;;;;;;;2.35;0.95;;;6.50;88.60;;;;;;5002375;28;21232;-70
2022/01/30 12:32:22;;;;;;;4.53;1.33;;;6.50;87.00;;;;;;4999720;28;20033;-70
2022/01/30 12:35:00;;;;;;;2.45;0.90;;;6.60;86.80;;;;;;5000791;28;20034;-70
2022/01/30 12:37:27;;;;;;;7.90;0.70;;;6.70;85.00;;;;;;4993817;28;20033;-69
2022/01/30 12:39:53;;;;;;;3.65;0.70;;;6.70;84.10;;;;;;4995787;28;20022;-71
2022/01/30 12:42:21;;;;;;;3.47;0.80;;;6.70;86.70;;;;;;4991536;28;20091;-69
2022/01/30 12:44:47;;;;;;;5.20;0.63;;;6.50;89.70;;;;;;4979343;28;20050;-69
2022/01/30 12:47:16;;;;;;;2.25;0.70;;;6.50;87.60;;;;;;4989399;28;20480;-69
2022/01/30 12:49:48;;;;;;;2.28;0.82;;;6.40;89.70;;;;;;4991691;28;20107;-70
2022/01/30 12:52:36;;;;;;;4.53;1.08;;;6.50;88.50;;;;;;4994620;28;20100;-69
2022/01/30 12:55:09;;;;;;;4.18;0.60;;;6.50;88.30;;;;;;4990112;28;20825;-70
2022/01/30 12:57:35;;;;;;;1.25;0.63;;;6.60;87.20;;;;;;4981487;28;20051;-72
2022/01/30 13:00:05;;;;;;;3.00;0.85;;;6.70;86.50;;;;;;4987035;28;20689;-73
2022/01/30 13:02:36;;;;;;;3.97;0.60;;;6.70;85.30;;;;;;4977859;28;20053;-73
2022/01/30 13:05:13;;;;;;;3.17;1.10;;;6.70;87.50;;;;;;4968123;28;20053;-71
2022/01/30 13:07:38;;;;;;;4.65;1.13;;;6.70;87.50;;;;;;4117834;28;10001143;-72
2022/01/30 13:10:17;;;;;;;4.57;0.77;;;6.70;87.10;;;;;;4990771;28;20100;-72
2022/01/30 13:12:45;;;;;;;3.45;0.85;;;6.70;84.20;;;;;;4993241;28;20106;-72
2022/01/30 13:15:16;;;;;;;4.85;0.70;;;6.60;83.60;;;;;;4994701;28;20112;-70
2022/01/30 13:17:42;;;;;;;5.25;0.93;;;6.60;86.10;;;;;;4986152;28;20053;-69
2022/01/30 13:20:11;;;;;;;5.15;0.60;;;6.40;88.00;;;;;;4992360;28;20412;-68
2022/01/30 13:22:40;;;;;;;2.35;0.50;;;6.40;89.50;;;;;;4994601;28;20061;-68
2022/01/30 13:25:14;;;;;;;4.03;0.93;;;6.40;87.90;;;;;;4999160;28;20049;-69
2022/01/30 13:27:44;;;;;;;5.35;0.65;;;6.40;86.40;;;;;;4990674;28;20052;-68
2022/01/30 13:30:17;;;;;;;2.00;0.75;;;6.40;87.10;;;;;;4987940;28;20050;-69
2022/01/30 13:32:43;;;;;;;6.10;0.77;;;6.40;87.20;;;;;;4983205;28;20042;-69
2022/01/30 13:35:13;;;;;;;2.50;0.50;;;6.50;85.90;;;;;;4987989;28;20160;-69
2022/01/30 13:37:41;;;;;;;2.13;0.70;;;6.50;85.80;;;;;;4986859;28;20044;-71
2022/01/30 13:40:37;;;;;;;3.70;0.90;;;6.50;85.50;;;;;;4994780;28;20132;-70
2022/01/30 13:42:58;;;;;;;5.30;0.80;;;6.50;85.90;;;;;;4981368;28;20057;-70
2022/01/30 13:48:15;;;;;;;2.55;0.82;;;6.50;85.10;;;;;;4987178;28;20107;-69
2022/01/30 13:50:47;;;;;;;4.15;0.77;;;6.50;84.10;;;;;;4992476;28;20057;-70
2022/01/30 13:53:17;;;;;;;3.50;0.80;;;6.50;83.70;;;;;;4995551;28;20038;-70
2022/01/30 13:56:00;;;;;;;3.13;0.80;;;6.50;85.10;;;;;;4996117;28;20038;-71
2022/01/30 13:58:47;;;;;;;4.45;0.70;;;6.40;85.50;;;;;;4994721;28;20124;-70
2022/01/30 14:01:18;;;;;;;5.13;0.90;;;6.40;86.50;;;;;;4994053;28;20049;-70